createdAt,value
2017-06-01T00:00:02.709Z,11.53
2017-06-01T00:10:03.088Z,11.44
2017-06-01T00:20:03.120Z,11.38
2017-06-01T00:30:02.576Z,11.24
2017-06-01T00:40:03.105Z,11.13
2017-06-01T00:50:02.355Z,11.01
2017-06-01T01:00:02.818Z,10.88
2017-06-01T01:10:02.231Z,10.7
2017-06-01T01:20:02.175Z,10.68
2017-06-01T01:30:02.620Z,10.66
2017-06-01T01:40:03.091Z,10.56
2017-06-01T01:50:03.051Z,10.63
2017-06-01T02:00:02.549Z,10.63
2017-06-01T02:10:02.688Z,10.48
2017-06-01T02:20:02.815Z,10.27
2017-06-01T02:30:02.267Z,10.11
2017-06-01T02:40:03.086Z,9.93
2017-06-01T02:50:02.164Z,9.79
2017-06-01T03:00:02.643Z,9.7
2017-06-01T03:10:02.454Z,9.61
2017-06-01T03:20:02.792Z,9.51
2017-06-01T03:30:02.257Z,9.52
2017-06-01T03:40:03.116Z,9.48
2017-06-01T03:50:02.771Z,9.45
2017-06-01T04:00:02.256Z,9.51
2017-06-01T04:10:02.747Z,9.53
2017-06-01T04:20:03.111Z,9.61
2017-06-01T04:30:02.554Z,9.64
2017-06-01T04:40:02.538Z,9.8
2017-06-01T04:50:02.303Z,9.96
2017-06-01T05:00:02.235Z,10.11
2017-06-01T05:10:02.315Z,10.25
2017-06-01T05:20:02.883Z,10.4
2017-06-01T05:30:02.333Z,10.58
2017-06-01T05:40:02.196Z,10.73
2017-06-01T05:50:02.140Z,10.85
2017-06-01T06:00:02.599Z,11.01
2017-06-01T06:10:02.479Z,11.17
2017-06-01T06:20:02.907Z,11.3
2017-06-01T06:30:02.364Z,11.51
2017-06-01T06:40:02.595Z,11.79
2017-06-01T06:50:02.691Z,12.2
2017-06-01T07:00:02.171Z,13.64
2017-06-01T07:10:02.289Z,14.99
2017-06-01T07:20:02.387Z,15.89
2017-06-01T07:30:02.821Z,16.74
2017-06-01T07:40:03.111Z,17.39
2017-06-01T07:50:02.801Z,17.89
2017-06-01T08:00:02.314Z,18.29
2017-06-01T08:10:03.007Z,18.76
2017-06-01T08:20:02.180Z,19.41
2017-06-01T08:30:02.620Z,20.19
2017-06-01T08:40:03.129Z,20.11
2017-06-01T08:50:03.011Z,20.64
2017-06-01T09:00:02.480Z,20.84
2017-06-01T09:10:02.220Z,21.55
2017-06-01T09:20:02.148Z,21.23
2017-06-01T09:30:02.570Z,22.01
2017-06-01T09:40:03.004Z,21.59
2017-06-01T09:50:02.896Z,21.55
2017-06-01T10:00:02.368Z,21.57
2017-06-01T10:10:02.754Z,22.02
2017-06-01T10:20:02.461Z,21.15
2017-06-01T10:30:02.914Z,20.64
2017-06-01T10:40:02.361Z,20.9
2017-06-01T10:50:03.097Z,20.92
2017-06-01T11:00:02.553Z,20.63
2017-06-01T11:10:02.917Z,21.01
2017-06-01T11:20:02.921Z,21.64
2017-06-01T11:30:02.378Z,21.53
2017-06-01T11:40:02.200Z,21.27
2017-06-01T11:50:02.831Z,21.96
2017-06-01T12:00:02.284Z,22.27
2017-06-01T12:10:02.573Z,22.44
2017-06-01T12:20:02.522Z,22.39
2017-06-01T12:30:02.984Z,22.77
2017-06-01T12:40:02.466Z,22.8
2017-06-01T12:50:02.289Z,22.62
2017-06-01T13:00:02.761Z,22.41
2017-06-01T13:10:02.455Z,22.33
2017-06-01T13:20:02.867Z,22.27
2017-06-01T13:30:02.298Z,21.97
2017-06-01T13:40:02.560Z,22.18
2017-06-01T13:50:02.945Z,22.25
2017-06-01T14:00:02.417Z,22.17
2017-06-01T14:10:02.698Z,22.49
2017-06-01T14:20:02.942Z,22.39
2017-06-01T14:30:02.410Z,22.31
2017-06-01T14:40:02.864Z,22.56
2017-06-01T14:50:02.336Z,22.9
2017-06-01T15:00:02.806Z,22.93
2017-06-01T15:10:02.339Z,22.93
2017-06-01T15:20:02.690Z,22.98
2017-06-01T15:30:02.165Z,22.9
2017-06-01T15:40:02.672Z,23.17
2017-06-01T15:50:02.345Z,23.18
2017-06-01T16:00:02.821Z,23.05
2017-06-01T16:10:02.376Z,23.01
2017-06-01T16:20:02.315Z,22.94
2017-06-01T16:30:02.838Z,23.02
2017-06-01T16:40:02.347Z,22.93
2017-06-01T16:50:03.025Z,22.82
2017-06-01T17:00:02.561Z,22.61
2017-06-01T17:10:02.968Z,22.47
2017-06-01T17:20:02.308Z,22.29
2017-06-01T17:30:02.715Z,22.21
2017-06-01T17:40:02.980Z,22.06
2017-06-01T17:50:03.054Z,21.85
2017-06-01T18:00:02.545Z,21.66
2017-06-01T18:10:02.676Z,21.49
2017-06-01T18:20:02.501Z,21.27
2017-06-01T18:30:02.963Z,20.96
2017-06-01T18:40:02.473Z,20.57
2017-06-01T18:50:02.431Z,20.12
2017-06-01T19:00:02.942Z,19.67
2017-06-01T19:10:03.067Z,19.18
2017-06-01T19:20:02.316Z,18.69
2017-06-01T19:30:02.760Z,18.23
2017-06-01T19:40:02.208Z,17.75
2017-06-01T19:50:02.349Z,17.33
2017-06-01T20:00:02.791Z,16.96
2017-06-01T20:10:02.891Z,16.74
2017-06-01T20:20:03.093Z,16.42
2017-06-01T20:30:02.565Z,16.1
2017-06-01T20:40:03.005Z,15.8
2017-06-01T20:50:02.835Z,15.61
2017-06-01T21:00:02.334Z,15.38
2017-06-01T21:10:02.376Z,15.23
2017-06-01T21:20:02.569Z,15.01
2017-06-01T21:30:03.034Z,14.82
2017-06-01T21:40:02.491Z,14.71
2017-06-01T21:50:03.031Z,14.58
2017-06-01T22:00:02.548Z,14.39
2017-06-01T22:10:02.861Z,14.18
2017-06-01T22:20:02.751Z,13.99
2017-06-01T22:30:02.179Z,13.84
2017-06-01T22:40:02.373Z,13.69
2017-06-01T22:50:02.756Z,13.52
2017-06-01T23:00:02.242Z,13.36
2017-06-01T23:10:02.147Z,13.22
2017-06-01T23:20:02.200Z,13.09
2017-06-01T23:30:02.607Z,12.95
2017-06-01T23:40:02.143Z,12.86
2017-06-01T23:50:03.103Z,12.74
